Time;durP1;ratioP1;P1;durP2;ratioP2;P2;SDS_P1;SDS_P2;PMS_P1;PMS_P2;Temp;Humidity;BMP_temperature;BMP_pressure;BME280_temperature;BME280_humidity;BME280_pressure;Samples;Min_cycle;Max_cycle;Signal;HPM_P1;HPM_P2
2022/04/05 00:02:11;;;;;;;26.15;16.08;;;;;;;;;;5052532;28;20045;-83
2022/04/05 00:04:56;;;;;;;41.22;18.63;;;;;;;;;;5053628;28;20045;-82
2022/04/05 00:07:42;;;;;;;63.50;23.98;;;;;;;;;;5053482;28;20045;-82
2022/04/05 00:10:28;;;;;;;51.90;23.05;;;;;;;;;;5053645;28;20049;-81
2022/04/05 00:13:13;;;;;;;35.00;17.52;;;;;;;;;;5053590;28;20421;-82
2022/04/05 00:15:59;;;;;;;29.80;16.75;;;;;;;;;;5053224;28;20045;-81
2022/04/05 00:18:44;;;;;;;28.52;15.23;;;;;;;;;;5053235;28;20045;-82
2022/04/05 00:21:30;;;;;;;37.78;18.52;;;;;;;;;;5052814;28;20401;-83
2022/04/05 00:24:16;;;;;;;43.10;19.92;;;;;;;;;;5053277;28;20045;-83
2022/04/05 00:27:02;;;;;;;36.67;20.50;;;;;;;;;;5053610;28;20470;-83
2022/04/05 00:29:47;;;;;;;39.53;19.95;;;;;;;;;;5058436;28;20045;-82
2022/04/05 00:32:33;;;;;;;38.08;20.70;;;;;;;;;;5053300;28;20041;-82
2022/04/05 00:35:18;;;;;;;43.63;20.70;;;;;;;;;;5053128;28;20045;-82
2022/04/05 00:38:04;;;;;;;37.97;20.40;;;;;;;;;;5053282;28;20044;-82
2022/04/05 00:40:49;;;;;;;41.30;20.88;;;;;;;;;;5053261;28;20046;-82
2022/04/05 00:43:35;;;;;;;40.38;21.13;;;;;;;;;;5052902;28;20053;-82
2022/04/05 00:46:20;;;;;;;43.13;21.33;;;;;;;;;;5053296;28;20429;-81
2022/04/05 00:49:10;;;;;;;39.80;22.80;;;;;;;;;;5052722;28;20049;-83
2022/04/05 00:51:59;;;;;;;65.63;30.20;;;;;;;;;;5038499;28;20048;-84
2022/04/05 00:54:46;;;;;;;60.08;26.67;;;;;;;;;;5038858;28;20041;-83
2022/04/05 00:57:34;;;;;;;54.60;27.10;;;;;;;;;;5052951;28;20041;-82
2022/04/05 01:00:20;;;;;;;59.85;27.88;;;;;;;;;;5053809;28;20044;-82
2022/04/05 01:03:06;;;;;;;66.47;27.48;;;;;;;;;;5052794;28;20045;-82
2022/04/05 01:05:52;;;;;;;46.22;23.83;;;;;;;;;;5059514;28;20045;-82
2022/04/05 01:08:38;;;;;;;69.70;31.15;;;;;;;;;;5053579;28;20397;-83
2022/04/05 01:11:24;;;;;;;71.50;31.88;;;;;;;;;;5057321;28;20485;-82
2022/04/05 01:14:09;;;;;;;68.47;28.95;;;;;;;;;;5062887;28;20485;-80
2022/04/05 01:16:55;;;;;;;62.90;33.10;;;;;;;;;;5069378;28;20053;-79
2022/04/05 01:19:40;;;;;;;81.30;34.88;;;;;;;;;;5059085;28;20056;-82
2022/04/05 01:22:26;;;;;;;72.07;33.10;;;;;;;;;;5057439;28;20049;-83
2022/04/05 01:25:16;;;;;;;67.90;30.25;;;;;;;;;;5056575;28;20053;-81
2022/04/05 01:28:01;;;;;;;62.53;28.27;;;;;;;;;;5056425;28;20461;-81
2022/04/05 01:30:47;;;;;;;65.40;29.20;;;;;;;;;;5056356;28;20490;-82
2022/04/05 01:33:32;;;;;;;65.15;29.20;;;;;;;;;;5056170;28;20045;-82
2022/04/05 01:36:25;;;;;;;58.33;28.90;;;;;;;;;;5048389;28;20049;-82
2022/04/05 01:39:17;;;;;;;48.28;22.98;;;;;;;;;;5040936;28;20497;-81
2022/04/05 01:42:06;;;;;;;51.60;24.45;;;;;;;;;;5041132;28;20063;-82
2022/04/05 01:44:51;;;;;;;54.45;23.63;;;;;;;;;;5055645;28;20045;-83
2022/04/05 01:47:39;;;;;;;47.05;22.90;;;;;;;;;;5055771;28;20497;-82
2022/04/05 01:50:24;;;;;;;40.90;20.95;;;;;;;;;;5055453;28;20045;-82
2022/04/05 01:53:09;;;;;;;37.03;19.23;;;;;;;;;;5047219;28;20052;-82
2022/04/05 01:55:55;;;;;;;38.92;19.77;;;;;;;;;;5055783;28;20040;-82
2022/04/05 01:58:41;;;;;;;43.13;20.70;;;;;;;;;;5062539;28;20057;-82
2022/04/05 02:01:26;;;;;;;35.75;19.70;;;;;;;;;;5047616;28;20049;-82
2022/04/05 02:04:12;;;;;;;38.47;20.40;;;;;;;;;;5055486;28;20045;-83
2022/04/05 02:06:59;;;;;;;38.88;20.27;;;;;;;;;;5055318;28;20053;-82
2022/04/05 02:09:48;;;;;;;38.50;20.95;;;;;;;;;;5055244;28;20048;-82
2022/04/05 02:12:35;;;;;;;45.58;21.50;;;;;;;;;;5055655;28;20045;-82
2022/04/05 02:15:28;;;;;;;42.90;22.13;;;;;;;;;;5034127;28;20048;-82
2022/04/05 02:18:25;;;;;;;57.90;27.98;;;;;;;;;;5055539;28;20474;-81
2022/04/05 02:21:11;;;;;;;53.75;25.20;;;;;;;;;;5033044;28;20425;-81
2022/04/05 02:23:58;;;;;;;55.55;24.88;;;;;;;;;;5043644;28;20478;-82
2022/04/05 02:26:49;;;;;;;44.50;24.70;;;;;;;;;;5060609;28;20393;-81
2022/04/05 02:29:38;;;;;;;48.20;22.13;;;;;;;;;;5033170;28;20041;-81
2022/04/05 02:32:32;;;;;;;43.58;21.92;;;;;;;;;;5055168;28;20045;-81
2022/04/05 02:35:18;;;;;;;36.67;20.90;;;;;;;;;;5060378;28;20481;-81
2022/04/05 02:38:04;;;;;;;40.35;20.90;;;;;;;;;;5046606;28;20040;-81
2022/04/05 02:40:53;;;;;;;41.90;20.35;;;;;;;;;;5033132;28;20497;-81
2022/04/05 02:43:39;;;;;;;39.53;19.05;;;;;;;;;;5046549;28;20057;-81
2022/04/05 02:46:25;;;;;;;35.03;19.05;;;;;;;;;;5060582;28;20045;-81
2022/04/05 02:49:13;;;;;;;32.03;17.45;;;;;;;;;;5060232;28;20045;-83
2022/04/05 02:52:00;;;;;;;32.28;17.40;;;;;;;;;;5046702;28;20056;-81
2022/04/05 02:54:56;;;;;;;31.85;16.42;;;;;;;;;;5039486;28;20128;-81
2022/04/05 02:57:45;;;;;;;31.60;16.77;;;;;;;;;;5047409;28;20044;-82
2022/04/05 03:00:38;;;;;;;29.58;16.95;;;;;;;;;;5047466;28;20052;-82
2022/04/05 03:03:30;;;;;;;32.97;19.25;;;;;;;;;;5060654;28;20049;-82
2022/04/05 03:06:17;;;;;;;36.10;19.30;;;;;;;;;;5055596;28;20049;-82
2022/04/05 03:09:03;;;;;;;34.00;19.48;;;;;;;;;;5047959;28;20405;-83
2022/04/05 03:11:50;;;;;;;57.50;28.27;;;;;;;;;;5034961;28;20044;-82
2022/04/05 03:14:39;;;;;;;55.90;28.52;;;;;;;;;;5049542;28;20049;-81
2022/04/05 03:17:26;;;;;;;76.53;36.45;;;;;;;;;;5046050;28;20409;-80
2022/04/05 03:20:13;;;;;;;62.97;31.33;;;;;;;;;;5045945;28;20489;-81
2022/04/05 03:23:04;;;;;;;65.78;31.50;;;;;;;;;;5059291;28;20045;-82
2022/04/05 03:25:49;;;;;;;61.85;31.38;;;;;;;;;;5054520;28;20044;-80
2022/04/05 03:28:37;;;;;;;46.83;26.08;;;;;;;;;;5060026;28;20040;-81
2022/04/05 03:31:24;;;;;;;44.92;25.15;;;;;;;;;;5045727;28;20477;-81
2022/04/05 03:34:12;;;;;;;55.08;25.75;;;;;;;;;;5059915;28;20402;-82
2022/04/05 03:36:58;;;;;;;63.55;28.30;;;;;;;;;;5044598;28;20045;-81
2022/04/05 03:39:44;;;;;;;61.17;27.80;;;;;;;;;;5045901;28;20052;-81
2022/04/05 03:42:30;;;;;;;64.20;33.10;;;;;;;;;;5045776;28;20056;-81
2022/04/05 03:45:15;;;;;;;109.88;39.00;;;;;;;;;;5054012;28;20391;-81
2022/04/05 03:48:02;;;;;;;71.55;30.60;;;;;;;;;;5045754;28;20474;-83
2022/04/05 03:50:49;;;;;;;76.93;33.75;;;;;;;;;;5059425;28;20049;-82
2022/04/05 03:53:35;;;;;;;69.13;34.10;;;;;;;;;;5054044;28;20417;-82
2022/04/05 03:56:22;;;;;;;70.32;34.30;;;;;;;;;;5053546;28;20044;-81
2022/04/05 03:59:07;;;;;;;64.40;31.33;;;;;;;;;;5045182;28;20409;-81
2022/04/05 04:01:53;;;;;;;71.72;33.42;;;;;;;;;;5047328;28;20049;-81
2022/04/05 04:04:38;;;;;;;70.88;32.15;;;;;;;;;;5058066;28;20049;-81
2022/04/05 04:07:26;;;;;;;60.42;30.33;;;;;;;;;;5040085;28;20041;-78
2022/04/05 04:10:12;;;;;;;53.45;28.95;;;;;;;;;;5068420;28;20044;-82
2022/04/05 04:12:58;;;;;;;80.90;34.53;;;;;;;;;;5045580;28;20048;-80
2022/04/05 04:15:47;;;;;;;101.88;44.38;;;;;;;;;;5044801;28;20045;-83
2022/04/05 04:18:33;;;;;;;106.95;44.85;;;;;;;;;;5058414;28;20482;-83
2022/04/05 04:21:20;;;;;;;86.22;39.13;;;;;;;;;;5045234;28;20057;-82
2022/04/05 04:24:07;;;;;;;81.35;35.70;;;;;;;;;;5063715;28;20064;-81
2022/04/05 04:26:53;;;;;;;79.22;36.42;;;;;;;;;;5064519;28;20481;-82
2022/04/05 04:29:39;;;;;;;70.95;33.25;;;;;;;;;;5073230;28;20045;-81
2022/04/05 04:32:24;;;;;;;73.40;35.15;;;;;;;;;;5080410;28;20041;-81
2022/04/05 04:35:10;;;;;;;68.03;33.17;;;;;;;;;;5063827;28;20481;-81
2022/04/05 04:37:56;;;;;;;65.18;33.47;;;;;;;;;;5055745;28;20389;-81
2022/04/05 04:40:50;;;;;;;72.20;32.08;;;;;;;;;;5071476;28;20424;-81
2022/04/05 04:43:35;;;;;;;109.00;46.72;;;;;;;;;;5073546;28;20049;-83
2022/04/05 04:46:20;;;;;;;97.35;43.67;;;;;;;;;;5080179;28;20048;-81
2022/04/05 04:49:06;;;;;;;92.10;42.58;;;;;;;;;;5056528;28;20493;-82
2022/04/05 04:51:51;;;;;;;123.78;46.28;;;;;;;;;;5050758;28;20428;-82
2022/04/05 04:54:36;;;;;;;84.00;38.78;;;;;;;;;;5059073;28;20045;-82
2022/04/05 04:57:23;;;;;;;99.03;44.22;;;;;;;;;;5064169;28;20045;-80
2022/04/05 05:00:11;;;;;;;95.10;43.50;;;;;;;;;;5073283;28;20057;-83
2022/04/05 05:02:56;;;;;;;76.13;35.65;;;;;;;;;;5076630;28;20108;-83
2022/04/05 05:05:41;;;;;;;74.60;36.47;;;;;;;;;;5076989;28;20048;-82
2022/04/05 05:08:27;;;;;;;140.20;54.05;;;;;;;;;;5076825;28;20048;-82
2022/04/05 05:11:14;;;;;;;109.38;47.65;;;;;;;;;;5067935;28;20397;-82
2022/04/05 05:13:59;;;;;;;104.32;46.50;;;;;;;;;;5076219;28;20484;-82
2022/04/05 05:16:45;;;;;;;101.15;49.60;;;;;;;;;;5074927;28;20396;-82
2022/04/05 05:19:31;;;;;;;80.13;41.63;;;;;;;;;;5077143;28;20404;-82
2022/04/05 05:22:16;;;;;;;71.07;38.30;;;;;;;;;;5077088;28;20045;-82
2022/04/05 05:25:02;;;;;;;67.50;36.80;;;;;;;;;;5077758;28;20397;-82
2022/04/05 05:27:47;;;;;;;60.03;31.25;;;;;;;;;;5075635;28;20040;-82
2022/04/05 05:30:33;;;;;;;58.90;32.53;;;;;;;;;;5075616;28;20048;-81
2022/04/05 05:33:18;;;;;;;58.60;31.15;;;;;;;;;;5076329;28;20041;-81
2022/04/05 05:36:04;;;;;;;56.50;29.75;;;;;;;;;;5075822;28;20040;-81
2022/04/05 05:38:50;;;;;;;43.35;25.48;;;;;;;;;;5076283;28;20052;-80
2022/04/05 05:41:35;;;;;;;50.00;25.38;;;;;;;;;;5076086;28;20449;-83
2022/04/05 05:44:21;;;;;;;48.42;26.65;;;;;;;;;;5074803;28;20048;-82
2022/04/05 05:47:06;;;;;;;50.95;28.27;;;;;;;;;;5076007;28;20041;-82
2022/04/05 05:49:52;;;;;;;60.58;31.20;;;;;;;;;;5075682;28;20497;-82
2022/04/05 05:52:37;;;;;;;53.30;30.60;;;;;;;;;;5060986;28;20033;-82
2022/04/05 05:55:23;;;;;;;50.38;30.45;;;;;;;;;;5075943;28;20041;-82
2022/04/05 05:58:08;;;;;;;53.97;30.33;;;;;;;;;;5075894;28;20044;-82
2022/04/05 06:00:55;;;;;;;52.72;30.98;;;;;;;;;;5075560;28;20416;-82
2022/04/05 06:03:39;;;;;;;50.00;29.48;;;;;;;;;;5075901;28;20044;-82
2022/04/05 06:06:25;;;;;;;49.90;28.23;;;;;;;;;;5075954;28;20052;-82
2022/04/05 06:09:11;;;;;;;47.42;28.42;;;;;;;;;;5067138;28;20044;-83
2022/04/05 06:11:56;;;;;;;50.15;28.17;;;;;;;;;;5075598;28;20048;-82
2022/04/05 06:14:42;;;;;;;71.45;34.50;;;;;;;;;;5075500;28;20056;-81
2022/04/05 06:17:27;;;;;;;69.03;34.25;;;;;;;;;;5129173;22;20053;-81
2022/04/05 06:20:16;;;;;;;65.75;34.40;;;;;;;;;;5075904;28;20040;-82
2022/04/05 06:23:04;;;;;;;68.43;37.95;;;;;;;;;;5082925;28;20380;-80
2022/04/05 06:25:49;;;;;;;71.90;37.70;;;;;;;;;;5082359;28;20468;-82
2022/04/05 06:28:35;;;;;;;76.32;38.40;;;;;;;;;;5076924;28;20056;-84
2022/04/05 06:31:20;;;;;;;67.75;36.13;;;;;;;;;;5075999;28;20048;-85
2022/04/05 06:34:05;;;;;;;74.63;37.78;;;;;;;;;;5081642;28;20045;-83
2022/04/05 06:36:53;;;;;;;71.03;37.47;;;;;;;;;;5071024;28;20048;-81
2022/04/05 06:39:38;;;;;;;429.13;226.43;;;;;;;;;;5076542;28;20040;-80
2022/04/05 06:42:25;;;;;;;142.90;69.18;;;;;;;;;;5063938;28;20045;-79
2022/04/05 06:45:13;;;;;;;96.30;43.22;;;;;;;;;;5076081;28;20044;-80
2022/04/05 06:48:00;;;;;;;117.75;61.38;;;;;;;;;;5082998;28;20049;-80
2022/04/05 06:50:47;;;;;;;90.78;44.50;;;;;;;;;;5082515;28;20041;-81
2022/04/05 06:53:32;;;;;;;84.13;39.80;;;;;;;;;;5089232;28;20492;-81
2022/04/05 06:56:21;;;;;;;90.05;46.60;;;;;;;;;;5083110;28;20052;-82
2022/04/05 06:59:07;;;;;;;92.53;46.33;;;;;;;;;;5078879;28;20044;-81
2022/04/05 07:01:52;;;;;;;92.22;45.22;;;;;;;;;;5080621;28;20040;-80
2022/04/05 07:04:38;;;;;;;77.30;40.35;;;;;;;;;;5089368;28;20040;-82
2022/04/05 07:07:24;;;;;;;97.93;47.15;;;;;;;;;;5083601;28;20045;-81
2022/04/05 07:10:12;;;;;;;80.90;42.25;;;;;;;;;;5083566;28;20041;-81
2022/04/05 07:12:57;;;;;;;83.40;42.85;;;;;;;;;;5089617;28;20044;-82
2022/04/05 07:15:42;;;;;;;83.00;42.53;;;;;;;;;;5088363;28;20044;-81
2022/04/05 07:18:28;;;;;;;67.50;34.78;;;;;;;;;;5081493;28;20040;-81
2022/04/05 07:21:13;;;;;;;56.58;31.30;;;;;;;;;;5079055;28;20044;-82
2022/04/05 07:23:58;;;;;;;58.67;33.47;;;;;;;;;;5083802;28;20049;-80
2022/04/05 07:26:44;;;;;;;59.40;32.95;;;;;;;;;;5077911;28;20048;-82
2022/04/05 07:29:30;;;;;;;66.72;35.60;;;;;;;;;;5079557;28;20056;-81
2022/04/05 07:32:15;;;;;;;63.03;34.42;;;;;;;;;;5086109;28;20044;-82
2022/04/05 07:35:01;;;;;;;64.80;35.83;;;;;;;;;;5083772;28;20045;-80
2022/04/05 07:37:47;;;;;;;59.83;31.13;;;;;;;;;;5083656;28;20040;-83
2022/04/05 07:40:48;;;;;;;58.67;28.73;;;;;;;;;;5085682;28;20045;-82
2022/04/05 07:43:34;;;;;;;43.17;25.48;;;;;;;;;;5078657;28;20041;-83
2022/04/05 07:46:19;;;;;;;35.88;20.00;;;;;;;;;;5076829;28;20045;-81
2022/04/05 07:49:05;;;;;;;28.25;17.05;;;;;;;;;;5081852;28;20048;-82
2022/04/05 07:51:50;;;;;;;38.13;20.23;;;;;;;;;;5075135;28;20045;-80
2022/04/05 07:54:36;;;;;;;29.55;14.35;;;;;;;;;;5082495;28;20052;-80
2022/04/05 07:57:21;;;;;;;21.05;13.85;;;;;;;;;;5081108;28;20044;-81
2022/04/05 08:00:07;;;;;;;28.50;14.15;;;;;;;;;;5075126;28;20037;-81
2022/04/05 08:02:59;;;;;;;31.63;15.15;;;;;;;;;;5065860;28;20036;-79
2022/04/05 08:05:45;;;;;;;28.65;16.38;;;;;;;;;;5080834;28;20217;-80
2022/04/05 08:08:31;;;;;;;27.27;15.85;;;;;;;;;;5074260;28;20037;-79
2022/04/05 08:11:16;;;;;;;27.90;15.82;;;;;;;;;;5080117;28;20052;-80
2022/04/05 08:14:02;;;;;;;24.90;14.93;;;;;;;;;;5080970;28;20400;-82
2022/04/05 08:16:47;;;;;;;26.60;15.38;;;;;;;;;;5081416;28;20045;-79
2022/04/05 08:19:33;;;;;;;26.45;16.52;;;;;;;;;;5073823;28;20484;-80
2022/04/05 08:22:18;;;;;;;29.67;18.33;;;;;;;;;;5080698;28;20044;-81
2022/04/05 08:25:05;;;;;;;32.92;18.60;;;;;;;;;;5078114;28;20044;-82
2022/04/05 08:27:51;;;;;;;29.25;18.15;;;;;;;;;;5085966;28;20040;-81
2022/04/05 08:30:36;;;;;;;24.95;16.73;;;;;;;;;;5085267;28;20052;-81
2022/04/05 08:33:22;;;;;;;31.08;18.67;;;;;;;;;;5084699;28;20040;-80
2022/04/05 08:36:07;;;;;;;30.52;16.75;;;;;;;;;;5084583;28;20045;-80
2022/04/05 08:38:53;;;;;;;30.33;17.83;;;;;;;;;;5084982;28;20052;-81
2022/04/05 08:41:41;;;;;;;27.50;16.00;;;;;;;;;;5077963;28;20049;-81
2022/04/05 08:44:28;;;;;;;25.30;14.63;;;;;;;;;;5084802;28;20048;-81
2022/04/05 08:47:14;;;;;;;24.27;15.15;;;;;;;;;;5084257;28;20404;-81
2022/04/05 08:50:03;;;;;;;28.27;17.60;;;;;;;;;;5077316;28;20389;-81
2022/04/05 08:52:49;;;;;;;20.65;14.68;;;;;;;;;;5077621;28;20469;-83
2022/04/05 08:55:38;;;;;;;26.40;15.75;;;;;;;;;;5077844;28;20044;-80
2022/04/05 08:58:23;;;;;;;28.60;16.02;;;;;;;;;;5083995;28;20476;-81
2022/04/05 09:01:09;;;;;;;27.55;15.95;;;;;;;;;;5062071;28;20040;-80
2022/04/05 09:03:55;;;;;;;27.08;15.75;;;;;;;;;;5084762;28;20040;-79
2022/04/05 09:06:41;;;;;;;26.95;16.92;;;;;;;;;;5084426;28;20044;-80
2022/04/05 09:09:28;;;;;;;28.25;18.23;;;;;;;;;;5084035;28;20056;-81
2022/04/05 09:12:17;;;;;;;29.67;17.65;;;;;;;;;;5084405;28;20052;-80
2022/04/05 09:15:08;;;;;;;26.95;16.48;;;;;;;;;;5083955;28;20045;-82
2022/04/05 09:17:54;;;;;;;29.13;17.45;;;;;;;;;;5062690;28;20052;-82
2022/04/05 09:20:48;;;;;;;23.38;12.60;;;;;;;;;;5077075;28;20044;-83
2022/04/05 09:23:39;;;;;;;22.42;13.23;;;;;;;;;;5077099;28;20044;-83
2022/04/05 09:26:26;;;;;;;25.13;13.82;;;;;;;;;;5055356;28;20052;-82
2022/04/05 09:29:11;;;;;;;21.40;11.38;;;;;;;;;;5061956;28;20404;-81
2022/04/05 09:31:57;;;;;;;23.30;13.43;;;;;;;;;;5084580;28;20041;-81
2022/04/05 09:34:51;;;;;;;23.98;14.43;;;;;;;;;;5068722;28;20049;-83
2022/04/05 09:37:38;;;;;;;23.00;14.00;;;;;;;;;;5077171;28;20050;-82
2022/04/05 09:40:32;;;;;;;14.45;8.00;;;;;;;;;;5077121;28;20127;-84
2022/04/05 09:43:17;;;;;;;10.38;6.05;;;;;;;;;;5068433;28;20045;-84
2022/04/05 09:46:04;;;;;;;8.02;5.43;;;;;;;;;;5076744;28;20504;-80
2022/04/05 09:49:05;;;;;;;10.73;6.55;;;;;;;;;;5083476;28;20045;-83
2022/04/05 09:51:50;;;;;;;9.02;6.32;;;;;;;;;;5084288;28;20485;-81
2022/04/05 09:54:36;;;;;;;11.05;7.28;;;;;;;;;;5076938;28;20572;-79
2022/04/05 09:57:32;;;;;;;11.90;8.88;;;;;;;;;;5083383;28;20044;-82
2022/04/05 10:00:19;;;;;;;13.43;8.70;;;;;;;;;;5068581;28;20052;-83
2022/04/05 10:03:09;;;;;;;16.42;8.98;;;;;;;;;;5054029;28;20052;-84
2022/04/05 10:05:54;;;;;;;8.45;5.43;;;;;;;;;;5076413;28;20075;-81
2022/04/05 10:08:39;;;;;;;14.40;7.57;;;;;;;;;;5076684;28;20037;-81
2022/04/05 10:11:27;;;;;;;13.75;8.15;;;;;;;;;;5075658;28;20040;-79
2022/04/05 10:14:20;;;;;;;14.68;7.45;;;;;;;;;;5082903;28;20045;-82
2022/04/05 10:17:06;;;;;;;7.00;4.35;;;;;;;;;;5082308;28;20048;-83
2022/04/05 10:19:56;;;;;;;10.63;4.95;;;;;;;;;;5076420;28;20464;-81
2022/04/05 10:22:42;;;;;;;8.45;5.72;;;;;;;;;;5067343;28;20480;-82
2022/04/05 10:25:30;;;;;;;7.80;5.50;;;;;;;;;;5067409;28;20406;-81
2022/04/05 10:28:19;;;;;;;7.68;5.05;;;;;;;;;;5076573;28;20040;-81
2022/04/05 10:31:17;;;;;;;7.07;5.00;;;;;;;;;;5082842;28;20041;-81
2022/04/05 10:34:20;;;;;;;7.90;4.60;;;;;;;;;;5067748;28;20036;-83
2022/04/05 10:37:17;;;;;;;8.25;4.15;;;;;;;;;;5060755;28;20041;-82
2022/04/05 10:40:01;;;;;;;6.25;5.00;;;;;;;;;;5060525;28;20396;-82
2022/04/05 10:42:54;;;;;;;7.25;4.60;;;;;;;;;;5067348;28;20048;-81
2022/04/05 10:45:44;;;;;;;5.63;3.83;;;;;;;;;;5075380;28;20037;-81
2022/04/05 10:48:31;;;;;;;8.00;4.47;;;;;;;;;;5053043;28;20048;-80
2022/04/05 10:51:30;;;;;;;7.75;4.40;;;;;;;;;;5082058;28;20040;-82
2022/04/05 10:54:19;;;;;;;6.95;3.92;;;;;;;;;;5068757;28;20044;-80
2022/04/05 10:57:32;;;;;;;6.50;4.40;;;;;;;;;;5082228;28;20048;-85
2022/04/05 11:00:26;;;;;;;6.97;4.65;;;;;;;;;;5074862;28;20052;-81
2022/04/05 11:03:11;;;;;;;8.52;4.15;;;;;;;;;;5082004;28;20049;-81
2022/04/05 11:06:03;;;;;;;6.20;4.45;;;;;;;;;;5072779;28;20044;-82
2022/04/05 11:08:51;;;;;;;5.57;3.70;;;;;;;;;;5070759;28;20056;-82
2022/04/05 11:11:38;;;;;;;14.32;4.05;;;;;;;;;;5068541;28;20049;-81
2022/04/05 11:14:38;;;;;;;5.65;3.83;;;;;;;;;;5062187;28;20041;-80
2022/04/05 11:17:26;;;;;;;4.70;3.08;;;;;;;;;;5069171;28;20044;-82
2022/04/05 11:20:14;;;;;;;6.90;3.60;;;;;;;;;;5073425;28;20052;-82
2022/04/05 11:23:00;;;;;;;5.90;3.38;;;;;;;;;;5073672;28;20040;-81
2022/04/05 11:25:47;;;;;;;5.43;3.72;;;;;;;;;;5056361;28;20040;-83
2022/04/05 11:28:45;;;;;;;8.73;3.70;;;;;;;;;;5072194;28;20048;-82
2022/04/05 11:31:39;;;;;;;6.22;3.80;;;;;;;;;;5081896;28;20036;-81
2022/04/05 11:34:45;;;;;;;7.20;3.75;;;;;;;;;;5080327;28;20044;-83
2022/04/05 11:37:34;;;;;;;6.00;3.58;;;;;;;;;;5069937;28;20056;-82
2022/04/05 11:40:20;;;;;;;5.88;3.72;;;;;;;;;;5076484;28;20052;-81
2022/04/05 11:43:06;;;;;;;9.80;4.85;;;;;;;;;;5054142;28;20052;-81
2022/04/05 11:45:52;;;;;;;6.10;3.65;;;;;;;;;;5068571;28;20040;-82
2022/04/05 11:48:44;;;;;;;6.50;3.55;;;;;;;;;;5079167;28;20040;-83
2022/04/05 11:51:36;;;;;;;7.47;3.42;;;;;;;;;;5079939;28;20401;-84
2022/04/05 11:54:28;;;;;;;6.35;3.00;;;;;;;;;;5049328;28;20049;-83
2022/04/05 11:57:13;;;;;;;6.05;3.38;;;;;;;;;;5070380;28;20049;-82
2022/04/05 12:00:08;;;;;;;7.28;3.38;;;;;;;;;;5056668;28;20037;-85
2022/04/05 12:03:05;;;;;;;5.97;3.50;;;;;;;;;;5079764;28;20052;-82
2022/04/05 12:05:52;;;;;;;6.75;3.40;;;;;;;;;;5064728;28;20040;-86
2022/04/05 12:08:39;;;;;;;7.55;3.08;;;;;;;;;;5072099;28;20045;-83
2022/04/05 12:11:26;;;;;;;3.58;2.78;;;;;;;;;;5062657;28;20044;-81
2022/04/05 12:14:16;;;;;;;6.68;3.10;;;;;;;;;;5071963;28;20392;-83
2022/04/05 12:17:03;;;;;;;4.55;3.00;;;;;;;;;;5065303;28;20480;-82
2022/04/05 12:19:52;;;;;;;4.90;3.10;;;;;;;;;;5066128;28;20041;-82
2022/04/05 12:22:37;;;;;;;5.55;3.58;;;;;;;;;;5069313;28;20488;-81
2022/04/05 12:25:23;;;;;;;4.82;3.20;;;;;;;;;;5087864;28;20044;-80
2022/04/05 12:28:08;;;;;;;7.00;2.80;;;;;;;;;;5088092;28;20396;-84
2022/04/05 12:31:06;;;;;;;4.13;3.03;;;;;;;;;;5072957;28;20048;-83
2022/04/05 12:34:08;;;;;;;4.05;2.83;;;;;;;;;;5079938;28;20049;-82
2022/04/05 12:36:59;;;;;;;5.55;2.50;;;;;;;;;;5087059;28;20044;-82
2022/04/05 12:39:48;;;;;;;7.22;2.95;;;;;;;;;;5069350;28;20049;-81
2022/04/05 12:42:40;;;;;;;6.72;2.80;;;;;;;;;;5038430;28;20045;-83
2022/04/05 12:45:29;;;;;;;4.70;3.10;;;;;;;;;;5044506;28;20044;-82
2022/04/05 12:48:16;;;;;;;3.90;2.85;;;;;;;;;;5065091;28;20052;-81
2022/04/05 12:51:01;;;;;;;5.80;2.95;;;;;;;;;;5060486;28;20041;-83
2022/04/05 12:53:47;;;;;;;6.57;3.30;;;;;;;;;;5059866;28;20057;-84
2022/04/05 12:56:35;;;;;;;6.97;2.90;;;;;;;;;;5065506;28;20045;-83
2022/04/05 12:59:26;;;;;;;8.13;3.40;;;;;;;;;;5078718;28;20419;-82
2022/04/05 13:02:16;;;;;;;7.80;3.10;;;;;;;;;;5080332;28;20040;-80
2022/04/05 13:08:34;;;;;;;9.65;3.22;;;;;;;;;;5072401;28;20484;-83
2022/04/05 13:11:25;;;;;;;4.72;2.63;;;;;;;;;;5083254;28;20040;-81
2022/04/05 13:14:14;;;;;;;4.38;2.97;;;;;;;;;;5077676;28;20037;-83
2022/04/05 13:17:01;;;;;;;11.75;7.28;;;;;;;;;;5085152;28;20405;-82
2022/04/05 13:19:55;;;;;;;8.80;6.10;;;;;;;;;;5083888;28;20044;-80
2022/04/05 13:22:40;;;;;;;7.25;3.65;;;;;;;;;;5076797;28;20041;-80
2022/04/05 13:25:34;;;;;;;5.25;2.88;;;;;;;;;;5083947;28;20044;-82
2022/04/05 13:28:19;;;;;;;5.35;3.30;;;;;;;;;;5078556;28;20044;-82
2022/04/05 13:31:18;;;;;;;5.15;2.80;;;;;;;;;;5068949;28;20044;-82
2022/04/05 13:34:04;;;;;;;5.22;3.10;;;;;;;;;;5082802;28;20048;-83
2022/04/05 13:36:50;;;;;;;6.80;3.30;;;;;;;;;;5082204;28;20052;-82
2022/04/05 13:39:36;;;;;;;4.45;2.70;;;;;;;;;;5083244;28;20048;-83
2022/04/05 13:42:24;;;;;;;5.00;3.17;;;;;;;;;;5081779;28;20044;-82
2022/04/05 13:45:10;;;;;;;8.00;3.45;;;;;;;;;;5067958;28;20404;-81
2022/04/05 13:47:55;;;;;;;5.35;3.10;;;;;;;;;;5082729;28;20476;-83
2022/04/05 13:50:42;;;;;;;4.38;3.03;;;;;;;;;;5082867;28;20048;-81
2022/04/05 13:53:28;;;;;;;8.07;4.10;;;;;;;;;;5076611;28;20041;-84
2022/04/05 13:56:14;;;;;;;6.15;3.70;;;;;;;;;;5082672;28;20041;-82
2022/04/05 13:58:59;;;;;;;6.45;3.33;;;;;;;;;;5076326;28;20396;-82
2022/04/05 14:01:45;;;;;;;5.53;3.25;;;;;;;;;;5083398;28;20396;-84
2022/04/05 14:04:30;;;;;;;5.80;3.67;;;;;;;;;;5082873;28;20044;-80
2022/04/05 14:07:16;;;;;;;8.57;3.70;;;;;;;;;;5083600;28;20049;-84
2022/04/05 14:10:04;;;;;;;6.63;3.47;;;;;;;;;;5075602;28;20045;-83
2022/04/05 14:12:50;;;;;;;7.75;2.90;;;;;;;;;;5073984;28;20041;-82
2022/04/05 14:15:35;;;;;;;6.00;3.33;;;;;;;;;;5060095;28;20057;-81
2022/04/05 14:18:21;;;;;;;8.68;3.95;;;;;;;;;;5067561;28;20472;-84
2022/04/05 14:21:10;;;;;;;5.22;3.38;;;;;;;;;;5081710;28;20060;-82
2022/04/05 14:23:56;;;;;;;4.80;3.03;;;;;;;;;;5080737;28;20052;-84
2022/04/05 14:26:40;;;;;;;6.70;3.90;;;;;;;;;;5078563;28;20044;-85
2022/04/05 14:29:26;;;;;;;7.57;4.15;;;;;;;;;;5072884;28;20045;-83
2022/04/05 14:32:14;;;;;;;7.07;4.47;;;;;;;;;;5074206;28;20421;-83
2022/04/05 14:35:01;;;;;;;11.85;8.60;;;;;;;;;;5071684;28;20048;-82
2022/04/05 14:37:47;;;;;;;11.80;7.15;;;;;;;;;;5074372;28;20401;-84
2022/04/05 14:40:36;;;;;;;7.88;4.15;;;;;;;;;;5074285;28;20036;-83
2022/04/05 14:43:23;;;;;;;6.40;4.13;;;;;;;;;;5065288;28;20040;-83
2022/04/05 14:46:08;;;;;;;10.35;4.30;;;;;;;;;;5080308;28;20052;-83
2022/04/05 14:48:53;;;;;;;10.93;4.80;;;;;;;;;;5073510;28;20036;-83
2022/04/05 14:51:42;;;;;;;8.27;4.28;;;;;;;;;;5078166;28;20036;-83
2022/04/05 14:54:27;;;;;;;11.27;3.72;;;;;;;;;;5064159;28;20519;-84
2022/04/05 14:57:13;;;;;;;6.32;3.70;;;;;;;;;;5072273;28;20040;-83
2022/04/05 14:59:59;;;;;;;9.48;4.25;;;;;;;;;;5053881;28;20045;-80
2022/04/05 15:02:45;;;;;;;7.13;4.50;;;;;;;;;;5078893;28;20037;-83
2022/04/05 15:05:31;;;;;;;9.20;5.10;;;;;;;;;;5073773;28;20044;-82
2022/04/05 15:08:16;;;;;;;10.05;4.80;;;;;;;;;;5080301;28;20400;-86
2022/04/05 15:11:02;;;;;;;7.05;3.88;;;;;;;;;;5070635;28;20504;-84
2022/04/05 15:13:48;;;;;;;6.07;3.47;;;;;;;;;;5063137;28;20056;-85
2022/04/05 15:16:33;;;;;;;6.63;3.50;;;;;;;;;;5076600;28;20052;-83
2022/04/05 15:19:21;;;;;;;5.95;3.70;;;;;;;;;;5070140;28;20048;-82
2022/04/05 15:22:06;;;;;;;7.50;3.90;;;;;;;;;;5073699;28;20052;-81
2022/04/05 15:24:52;;;;;;;5.82;3.38;;;;;;;;;;5078656;28;20044;-85
2022/04/05 15:27:37;;;;;;;7.25;3.30;;;;;;;;;;5073523;28;20507;-84
2022/04/05 15:30:23;;;;;;;6.82;3.60;;;;;;;;;;5072538;28;20393;-85
2022/04/05 15:33:09;;;;;;;4.00;2.95;;;;;;;;;;5057491;28;20144;-84
2022/04/05 15:35:55;;;;;;;4.35;2.80;;;;;;;;;;5080876;28;20041;-82
2022/04/05 15:38:41;;;;;;;8.27;3.20;;;;;;;;;;5073806;28;20041;-83
2022/04/05 15:41:27;;;;;;;6.00;4.00;;;;;;;;;;5074315;28;20052;-82
2022/04/05 15:44:12;;;;;;;8.02;4.45;;;;;;;;;;5080736;28;20040;-81
2022/04/05 15:46:58;;;;;;;7.30;3.97;;;;;;;;;;5073348;28;20420;-82
2022/04/05 15:49:43;;;;;;;23.27;5.05;;;;;;;;;;5080948;28;20041;-81
2022/04/05 15:52:29;;;;;;;11.27;4.47;;;;;;;;;;5065383;28;20492;-79
2022/04/05 15:55:16;;;;;;;8.85;4.93;;;;;;;;;;5080683;28;20048;-80
2022/04/05 15:58:01;;;;;;;8.32;4.93;;;;;;;;;;5080903;28;20048;-80
2022/04/05 16:00:47;;;;;;;10.38;4.60;;;;;;;;;;5080565;28;20481;-80
2022/04/05 16:03:32;;;;;;;7.60;3.38;;;;;;;;;;5080433;28;20045;-83
2022/04/05 16:06:18;;;;;;;7.95;3.50;;;;;;;;;;5080637;28;20044;-82
2022/04/05 16:09:03;;;;;;;4.72;3.10;;;;;;;;;;5080441;28;20044;-81
2022/04/05 16:11:49;;;;;;;7.18;4.03;;;;;;;;;;5081097;28;20048;-81
2022/04/05 16:14:35;;;;;;;6.28;3.80;;;;;;;;;;5073949;28;20040;-83
2022/04/05 16:17:22;;;;;;;6.70;3.65;;;;;;;;;;5073844;28;20048;-82
2022/04/05 16:20:08;;;;;;;21.38;9.13;;;;;;;;;;5073478;28;20508;-81
2022/04/05 16:22:53;;;;;;;8.77;4.00;;;;;;;;;;5078696;28;20477;-83
2022/04/05 16:25:39;;;;;;;10.90;5.00;;;;;;;;;;5056264;28;20036;-82
2022/04/05 16:28:25;;;;;;;7.38;4.35;;;;;;;;;;5071478;28;20396;-84